sensor_id;sensor_type;location;lat;lon;timestamp;pressure;altitude;pressure_sealevel;temperature;humidity
21545;BME280;10933;50.754;11.508;2023-04-20T00:00:47;98558.50;;;3.29;100.00
21545;BME280;10933;50.754;11.508;2023-04-20T00:03:13;98550.19;;;3.25;100.00
21545;BME280;10933;50.754;11.508;2023-04-20T00:05:40;98544.75;;;3.32;100.00
21545;BME280;10933;50.754;11.508;2023-04-20T00:08:06;98547.41;;;3.32;100.00
21545;BME280;10933;50.754;11.508;2023-04-20T00:10:33;98543.13;;;3.31;100.00
21545;BME280;10933;50.754;11.508;2023-04-20T00:12:59;98538.69;;;3.25;100.00
21545;BME280;10933;50.754;11.508;2023-04-20T00:15:25;98530.59;;;3.20;100.00
21545;BME280;10933;50.754;11.508;2023-04-20T00:17:51;98528.97;;;3.19;100.00
21545;BME280;10933;50.754;11.508;2023-04-20T00:20:18;98522.03;;;3.18;100.00
21545;BME280;10933;50.754;11.508;2023-04-20T00:22:44;98510.09;;;3.20;100.00
21545;BME280;10933;50.754;11.508;2023-04-20T00:25:10;98504.38;;;3.17;100.00
21545;BME280;10933;50.754;11.508;2023-04-20T00:27:36;98502.91;;;3.21;100.00
21545;BME280;10933;50.754;11.508;2023-04-20T00:30:02;98472.88;;;3.25;100.00
21545;BME280;10933;50.754;11.508;2023-04-20T00:32:29;98461.19;;;3.27;100.00
21545;BME280;10933;50.754;11.508;2023-04-20T00:34:55;98437.66;;;3.35;100.00
21545;BME280;10933;50.754;11.508;2023-04-20T00:37:21;98437.66;;;3.35;100.00
21545;BME280;10933;50.754;11.508;2023-04-20T00:39:50;98428.53;;;3.31;100.00
21545;BME280;10933;50.754;11.508;2023-04-20T00:42:16;98431.63;;;3.28;100.00
21545;BME280;10933;50.754;11.508;2023-04-20T00:44:42;98425.63;;;3.21;100.00
21545;BME280;10933;50.754;11.508;2023-04-20T00:47:08;98421.09;;;3.21;100.00
21545;BME280;10933;50.754;11.508;2023-04-20T00:49:35;98418.09;;;3.18;100.00
21545;BME280;10933;50.754;11.508;2023-04-20T00:52:01;98408.69;;;3.15;100.00
21545;BME280;10933;50.754;11.508;2023-04-20T00:54:28;98401.50;;;3.16;100.00
21545;BME280;10933;50.754;11.508;2023-04-20T00:56:55;98395.34;;;3.15;100.00
21545;BME280;10933;50.754;11.508;2023-04-20T00:59:23;98386.13;;;3.18;100.00
21545;BME280;10933;50.754;11.508;2023-04-20T01:01:49;98374.97;;;3.21;100.00
21545;BME280;10933;50.754;11.508;2023-04-20T01:04:15;98368.59;;;3.22;100.00
21545;BME280;10933;50.754;11.508;2023-04-20T01:06:42;98358.53;;;3.24;100.00
21545;BME280;10933;50.754;11.508;2023-04-20T01:09:08;98355.38;;;3.27;100.00
21545;BME280;10933;50.754;11.508;2023-04-20T01:11:35;98342.19;;;3.32;100.00
21545;BME280;10933;50.754;11.508;2023-04-20T01:14:01;98350.75;;;3.34;100.00
21545;BME280;10933;50.754;11.508;2023-04-20T01:16:27;98346.72;;;3.32;100.00
21545;BME280;10933;50.754;11.508;2023-04-20T01:18:53;98338.09;;;3.30;100.00
21545;BME280;10933;50.754;11.508;2023-04-20T01:21:21;98328.25;;;3.30;100.00
21545;BME280;10933;50.754;11.508;2023-04-20T01:23:47;98324.19;;;3.39;100.00
21545;BME280;10933;50.754;11.508;2023-04-20T01:26:15;98312.72;;;3.50;100.00
21545;BME280;10933;50.754;11.508;2023-04-20T01:28:42;98306.31;;;3.51;100.00
21545;BME280;10933;50.754;11.508;2023-04-20T01:31:10;98307.84;;;3.47;100.00
21545;BME280;10933;50.754;11.508;2023-04-20T01:33:36;98316.44;;;3.26;100.00
21545;BME280;10933;50.754;11.508;2023-04-20T01:36:03;98317.84;;;3.17;100.00
21545;BME280;10933;50.754;11.508;2023-04-20T01:38:30;98319.25;;;3.08;100.00
21545;BME280;10933;50.754;11.508;2023-04-20T01:40:58;98321.78;;;3.03;100.00
21545;BME280;10933;50.754;11.508;2023-04-20T01:43:24;98316.94;;;3.00;100.00
21545;BME280;10933;50.754;11.508;2023-04-20T01:45:51;98315.31;;;2.99;100.00
21545;BME280;10933;50.754;11.508;2023-04-20T01:48:17;98311.59;;;3.00;100.00
21545;BME280;10933;50.754;11.508;2023-04-20T01:50:43;98308.47;;;3.03;100.00
21545;BME280;10933;50.754;11.508;2023-04-20T01:53:09;98297.81;;;3.03;100.00
21545;BME280;10933;50.754;11.508;2023-04-20T01:55:35;98286.13;;;3.04;100.00
21545;BME280;10933;50.754;11.508;2023-04-20T01:58:01;98278.72;;;3.06;100.00
21545;BME280;10933;50.754;11.508;2023-04-20T02:00:27;98273.41;;;3.06;100.00
21545;BME280;10933;50.754;11.508;2023-04-20T02:02:54;98256.13;;;3.08;100.00
21545;BME280;10933;50.754;11.508;2023-04-20T02:05:20;98244.66;;;3.08;100.00
21545;BME280;10933;50.754;11.508;2023-04-20T02:07:46;98240.25;;;3.02;100.00
21545;BME280;10933;50.754;11.508;2023-04-20T02:10:12;98221.59;;;3.02;100.00
21545;BME280;10933;50.754;11.508;2023-04-20T02:12:39;98210.38;;;3.00;100.00
21545;BME280;10933;50.754;11.508;2023-04-20T02:15:06;98203.66;;;3.09;100.00
21545;BME280;10933;50.754;11.508;2023-04-20T02:17:34;98190.19;;;3.15;100.00
21545;BME280;10933;50.754;11.508;2023-04-20T02:20:02;98189.50;;;3.20;100.00
21545;BME280;10933;50.754;11.508;2023-04-20T02:22:32;98194.34;;;3.23;100.00
21545;BME280;10933;50.754;11.508;2023-04-20T02:25:00;98194.59;;;3.21;100.00
21545;BME280;10933;50.754;11.508;2023-04-20T02:27:27;98192.72;;;3.22;100.00
21545;BME280;10933;50.754;11.508;2023-04-20T02:29:53;98193.22;;;3.19;100.00
21545;BME280;10933;50.754;11.508;2023-04-20T02:32:19;98194.81;;;3.20;100.00
21545;BME280;10933;50.754;11.508;2023-04-20T02:34:45;98185.63;;;3.28;100.00
21545;BME280;10933;50.754;11.508;2023-04-20T02:37:11;98191.75;;;3.28;100.00
21545;BME280;10933;50.754;11.508;2023-04-20T02:39:38;98194.19;;;3.30;100.00
21545;BME280;10933;50.754;11.508;2023-04-20T02:42:04;98206.06;;;3.22;100.00
21545;BME280;10933;50.754;11.508;2023-04-20T02:44:31;98202.81;;;3.20;100.00
21545;BME280;10933;50.754;11.508;2023-04-20T02:46:57;98199.19;;;3.26;100.00
21545;BME280;10933;50.754;11.508;2023-04-20T02:49:23;98194.91;;;3.25;100.00
21545;BME280;10933;50.754;11.508;2023-04-20T02:51:49;98199.19;;;3.26;100.00
21545;BME280;10933;50.754;11.508;2023-04-20T02:54:15;98195.72;;;3.25;100.00
21545;BME280;10933;50.754;11.508;2023-04-20T02:56:41;98203.72;;;3.25;100.00
21545;BME280;10933;50.754;11.508;2023-04-20T02:59:07;98195.47;;;3.27;100.00
21545;BME280;10933;50.754;11.508;2023-04-20T03:01:34;98187.13;;;3.35;100.00
21545;BME280;10933;50.754;11.508;2023-04-20T03:04:00;98189.81;;;3.23;100.00
21545;BME280;10933;50.754;11.508;2023-04-20T03:06:26;98191.59;;;3.18;100.00
21545;BME280;10933;50.754;11.508;2023-04-20T03:08:52;98189.38;;;3.15;100.00
21545;BME280;10933;50.754;11.508;2023-04-20T03:11:18;98191.59;;;3.18;100.00
21545;BME280;10933;50.754;11.508;2023-04-20T03:13:45;98186.59;;;3.21;100.00
21545;BME280;10933;50.754;11.508;2023-04-20T03:16:11;98174.50;;;3.31;100.00
21545;BME280;10933;50.754;11.508;2023-04-20T03:18:37;98170.44;;;3.28;100.00
21545;BME280;10933;50.754;11.508;2023-04-20T03:21:03;98158.16;;;3.27;100.00
21545;BME280;10933;50.754;11.508;2023-04-20T03:23:30;98155.66;;;3.20;100.00
21545;BME280;10933;50.754;11.508;2023-04-20T03:25:56;98153.81;;;3.21;100.00
21545;BME280;10933;50.754;11.508;2023-04-20T03:28:22;98145.56;;;3.22;100.00
21545;BME280;10933;50.754;11.508;2023-04-20T03:30:48;98146.84;;;3.20;100.00
21545;BME280;10933;50.754;11.508;2023-04-20T03:33:14;98134.59;;;3.19;100.00
21545;BME280;10933;50.754;11.508;2023-04-20T03:35:40;98132.47;;;3.21;100.00
21545;BME280;10933;50.754;11.508;2023-04-20T03:38:07;98117.63;;;3.25;100.00
21545;BME280;10933;50.754;11.508;2023-04-20T03:40:34;98123.28;;;3.29;100.00
21545;BME280;10933;50.754;11.508;2023-04-20T03:43:00;98122.16;;;3.24;100.00
21545;BME280;10933;50.754;11.508;2023-04-20T03:45:26;98113.44;;;3.29;100.00
21545;BME280;10933;50.754;11.508;2023-04-20T03:47:54;98099.06;;;3.30;100.00
21545;BME280;10933;50.754;11.508;2023-04-20T03:50:20;98105.06;;;3.37;100.00
21545;BME280;10933;50.754;11.508;2023-04-20T03:52:46;98107.47;;;3.39;100.00
21545;BME280;10933;50.754;11.508;2023-04-20T03:55:13;98097.63;;;3.39;100.00
21545;BME280;10933;50.754;11.508;2023-04-20T03:57:39;98094.72;;;3.41;100.00
21545;BME280;10933;50.754;11.508;2023-04-20T04:00:05;98096.69;;;3.45;100.00
21545;BME280;10933;50.754;11.508;2023-04-20T04:02:32;98097.38;;;3.41;100.00
21545;BME280;10933;50.754;11.508;2023-04-20T04:04:59;98103.13;;;3.49;100.00
21545;BME280;10933;50.754;11.508;2023-04-20T04:07:25;98092.97;;;3.46;100.00
21545;BME280;10933;50.754;11.508;2023-04-20T04:09:51;98095.47;;;3.53;100.00
21545;BME280;10933;50.754;11.508;2023-04-20T04:12:17;98094.50;;;3.59;100.00
21545;BME280;10933;50.754;11.508;2023-04-20T04:14:43;98095.22;;;3.54;100.00
21545;BME280;10933;50.754;11.508;2023-04-20T04:17:09;98102.66;;;3.52;100.00
21545;BME280;10933;50.754;11.508;2023-04-20T04:19:35;98105.88;;;3.54;100.00
21545;BME280;10933;50.754;11.508;2023-04-20T04:22:01;98114.47;;;3.57;100.00
21545;BME280;10933;50.754;11.508;2023-04-20T04:24:28;98115.59;;;3.61;100.00
21545;BME280;10933;50.754;11.508;2023-04-20T04:26:54;98124.66;;;3.60;100.00
21545;BME280;10933;50.754;11.508;2023-04-20T04:29:24;98125.94;;;3.57;100.00
21545;BME280;10933;50.754;11.508;2023-04-20T04:31:53;98128.59;;;3.57;100.00
21545;BME280;10933;50.754;11.508;2023-04-20T04:34:20;98132.91;;;3.58;100.00
21545;BME280;10933;50.754;11.508;2023-04-20T04:36:46;98131.03;;;3.59;100.00
21545;BME280;10933;50.754;11.508;2023-04-20T04:39:13;98130.63;;;3.67;100.00
21545;BME280;10933;50.754;11.508;2023-04-20T04:41:39;98133.16;;;3.73;100.00
21545;BME280;10933;50.754;11.508;2023-04-20T04:44:05;98130.78;;;3.77;100.00
21545;BME280;10933;50.754;11.508;2023-04-20T04:46:31;98124.66;;;3.76;100.00
21545;BME280;10933;50.754;11.508;2023-04-20T04:48:58;98134.94;;;3.84;100.00
21545;BME280;10933;50.754;11.508;2023-04-20T04:51:27;98129.44;;;3.91;100.00
21545;BME280;10933;50.754;11.508;2023-04-20T04:53:54;98123.69;;;3.99;100.00
21545;BME280;10933;50.754;11.508;2023-04-20T04:56:21;98129.09;;;4.04;100.00
21545;BME280;10933;50.754;11.508;2023-04-20T04:58:48;98133.38;;;4.05;100.00
21545;BME280;10933;50.754;11.508;2023-04-20T05:01:14;98134.94;;;4.01;100.00
21545;BME280;10933;50.754;11.508;2023-04-20T05:03:40;98136.53;;;4.02;100.00
21545;BME280;10933;50.754;11.508;2023-04-20T05:06:12;98145.09;;;4.04;100.00
21545;BME280;10933;50.754;11.508;2023-04-20T05:08:38;98149.06;;;4.02;100.00
21545;BME280;10933;50.754;11.508;2023-04-20T05:11:04;98160.66;;;4.07;100.00
21545;BME280;10933;50.754;11.508;2023-04-20T05:13:30;98155.88;;;4.09;100.00
21545;BME280;10933;50.754;11.508;2023-04-20T05:15:56;98162.41;;;4.19;100.00
21545;BME280;10933;50.754;11.508;2023-04-20T05:18:22;98154.56;;;4.12;100.00
21545;BME280;10933;50.754;11.508;2023-04-20T05:20:49;98157.50;;;4.10;100.00
21545;BME280;10933;50.754;11.508;2023-04-20T05:23:16;98157.31;;;4.17;100.00
21545;BME280;10933;50.754;11.508;2023-04-20T05:25:42;98160.63;;;4.24;100.00
21545;BME280;10933;50.754;11.508;2023-04-20T05:28:08;98164.28;;;4.35;100.00
21545;BME280;10933;50.754;11.508;2023-04-20T05:30:35;98160.38;;;4.42;100.00
21545;BME280;10933;50.754;11.508;2023-04-20T05:33:01;98165.88;;;4.36;100.00
21545;BME280;10933;50.754;11.508;2023-04-20T05:35:27;98164.59;;;4.38;100.00
21545;BME280;10933;50.754;11.508;2023-04-20T05:37:53;98169.28;;;4.48;100.00
21545;BME280;10933;50.754;11.508;2023-04-20T05:40:19;98165.09;;;4.57;100.00
21545;BME280;10933;50.754;11.508;2023-04-20T05:42:45;98166.31;;;4.66;100.00
21545;BME280;10933;50.754;11.508;2023-04-20T05:45:12;98176.50;;;4.69;100.00
21545;BME280;10933;50.754;11.508;2023-04-20T05:47:38;98189.84;;;4.69;100.00
21545;BME280;10933;50.754;11.508;2023-04-20T05:50:05;98184.59;;;4.75;100.00
21545;BME280;10933;50.754;11.508;2023-04-20T05:52:32;98199.78;;;4.91;100.00
21545;BME280;10933;50.754;11.508;2023-04-20T05:54:58;98202.84;;;4.83;100.00
21545;BME280;10933;50.754;11.508;2023-04-20T05:57:24;98201.38;;;4.92;100.00
21545;BME280;10933;50.754;11.508;2023-04-20T05:59:51;98222.16;;;4.85;100.00
21545;BME280;10933;50.754;11.508;2023-04-20T06:02:17;98239.50;;;5.04;100.00
21545;BME280;10933;50.754;11.508;2023-04-20T06:04:43;98247.50;;;5.21;100.00
21545;BME280;10933;50.754;11.508;2023-04-20T06:07:09;98277.69;;;5.21;100.00
21545;BME280;10933;50.754;11.508;2023-04-20T06:09:35;98300.34;;;5.36;100.00
21545;BME280;10933;50.754;11.508;2023-04-20T06:12:01;98328.00;;;5.24;100.00
21545;BME280;10933;50.754;11.508;2023-04-20T06:14:28;98359.03;;;5.25;100.00
21545;BME280;10933;50.754;11.508;2023-04-20T06:16:54;98391.34;;;5.24;100.00
21545;BME280;10933;50.754;11.508;2023-04-20T06:19:20;98419.84;;;5.18;100.00
21545;BME280;10933;50.754;11.508;2023-04-20T06:21:47;98437.84;;;5.40;100.00
21545;BME280;10933;50.754;11.508;2023-04-20T06:24:13;98459.69;;;5.70;100.00
21545;BME280;10933;50.754;11.508;2023-04-20T06:26:39;98488.97;;;6.15;100.00
21545;BME280;10933;50.754;11.508;2023-04-20T06:29:05;98524.13;;;6.63;100.00
21545;BME280;10933;50.754;11.508;2023-04-20T06:31:31;98590.66;;;6.93;100.00
21545;BME280;10933;50.754;11.508;2023-04-20T06:33:57;98633.75;;;8.63;100.00
21545;BME280;10933;50.754;11.508;2023-04-20T06:36:23;98775.78;;;9.13;100.00
21545;BME280;10933;50.754;11.508;2023-04-20T06:38:49;98927.72;;;9.01;100.00
21545;BME280;10933;50.754;11.508;2023-04-20T06:41:16;98997.19;;;9.73;100.00
21545;BME280;10933;50.754;11.508;2023-04-20T06:43:42;99117.50;;;9.94;100.00
21545;BME280;10933;50.754;11.508;2023-04-20T06:46:10;99160.31;;;11.12;100.00
21545;BME280;10933;50.754;11.508;2023-04-20T06:48:36;99245.72;;;10.44;100.00
21545;BME280;10933;50.754;11.508;2023-04-20T06:51:02;99261.13;;;9.95;100.00
21545;BME280;10933;50.754;11.508;2023-04-20T06:53:28;99269.97;;;9.25;100.00
21545;BME280;10933;50.754;11.508;2023-04-20T06:55:55;99250.69;;;9.11;100.00
21545;BME280;10933;50.754;11.508;2023-04-20T06:58:21;99246.31;;;9.49;100.00
21545;BME280;10933;50.754;11.508;2023-04-20T07:00:47;99246.91;;;9.29;100.00
21545;BME280;10933;50.754;11.508;2023-04-20T07:03:13;99238.13;;;9.60;100.00
21545;BME280;10933;50.754;11.508;2023-04-20T07:05:39;99211.47;;;10.82;100.00
21545;BME280;10933;50.754;11.508;2023-04-20T07:08:05;99264.81;;;11.74;100.00
21545;BME280;10933;50.754;11.508;2023-04-20T07:10:33;99447.63;;;11.96;100.00
21545;BME280;10933;50.754;11.508;2023-04-20T07:12:59;99515.16;;;10.73;100.00
21545;BME280;10933;50.754;11.508;2023-04-20T07:15:25;99506.75;;;9.36;100.00
21545;BME280;10933;50.754;11.508;2023-04-20T07:17:51;99490.81;;;8.33;100.00
21545;BME280;10933;50.754;11.508;2023-04-20T07:20:17;99450.16;;;7.77;100.00
21545;BME280;10933;50.754;11.508;2023-04-20T07:22:43;99406.19;;;8.47;100.00
21545;BME280;10933;50.754;11.508;2023-04-20T07:25:09;99413.97;;;8.60;100.00
21545;BME280;10933;50.754;11.508;2023-04-20T07:27:39;99414.19;;;8.59;100.00
21545;BME280;10933;50.754;11.508;2023-04-20T07:30:07;99433.88;;;8.07;100.00
21545;BME280;10933;50.754;11.508;2023-04-20T07:32:34;99420.47;;;7.95;100.00
21545;BME280;10933;50.754;11.508;2023-04-20T07:35:00;99403.00;;;7.58;100.00
21545;BME280;10933;50.754;11.508;2023-04-20T07:37:27;99401.94;;;7.71;100.00
21545;BME280;10933;50.754;11.508;2023-04-20T07:39:53;99392.72;;;8.18;100.00
21545;BME280;10933;50.754;11.508;2023-04-20T07:42:19;99368.94;;;9.78;100.00
21545;BME280;10933;50.754;11.508;2023-04-20T07:44:46;99388.81;;;10.65;100.00
21545;BME280;10933;50.754;11.508;2023-04-20T07:47:13;99438.91;;;10.12;100.00
21545;BME280;10933;50.754;11.508;2023-04-20T07:49:41;99465.13;;;9.27;100.00
21545;BME280;10933;50.754;11.508;2023-04-20T07:52:07;99442.06;;;9.48;100.00
21545;BME280;10933;50.754;11.508;2023-04-20T07:54:33;99441.25;;;9.86;100.00
21545;BME280;10933;50.754;11.508;2023-04-20T07:57:00;99448.69;;;10.18;100.00
21545;BME280;10933;50.754;11.508;2023-04-20T07:59:26;99462.19;;;9.62;100.00
21545;BME280;10933;50.754;11.508;2023-04-20T08:01:57;99446.75;;;10.35;100.00
21545;BME280;10933;50.754;11.508;2023-04-20T08:04:23;99472.63;;;10.80;100.00
21545;BME280;10933;50.754;11.508;2023-04-20T08:06:49;99477.84;;;11.18;100.00
21545;BME280;10933;50.754;11.508;2023-04-20T08:09:15;99473.47;;;13.52;100.00
21545;BME280;10933;50.754;11.508;2023-04-20T08:11:41;99538.22;;;12.46;100.00
21545;BME280;10933;50.754;11.508;2023-04-20T08:14:07;99544.03;;;11.21;100.00
21545;BME280;10933;50.754;11.508;2023-04-20T08:16:33;99533.63;;;11.35;100.00
21545;BME280;10933;50.754;11.508;2023-04-20T08:18:59;99537.00;;;10.49;100.00
21545;BME280;10933;50.754;11.508;2023-04-20T08:21:26;99533.19;;;9.39;100.00
21545;BME280;10933;50.754;11.508;2023-04-20T08:23:53;99506.19;;;8.89;100.00
21545;BME280;10933;50.754;11.508;2023-04-20T08:26:19;99487.25;;;8.67;100.00
21545;BME280;10933;50.754;11.508;2023-04-20T08:28:45;99469.94;;;8.63;100.00
21545;BME280;10933;50.754;11.508;2023-04-20T08:31:12;99452.31;;;9.01;100.00
21545;BME280;10933;50.754;11.508;2023-04-20T08:33:39;99434.78;;;9.49;100.00
21545;BME280;10933;50.754;11.508;2023-04-20T08:36:05;99435.97;;;10.57;100.00
21545;BME280;10933;50.754;11.508;2023-04-20T08:38:31;99449.84;;;9.83;100.00
21545;BME280;10933;50.754;11.508;2023-04-20T08:40:58;99460.75;;;9.55;100.00
21545;BME280;10933;50.754;11.508;2023-04-20T08:43:24;99447.56;;;11.16;100.00
21545;BME280;10933;50.754;11.508;2023-04-20T08:45:51;99485.13;;;10.91;100.00
21545;BME280;10933;50.754;11.508;2023-04-20T08:48:19;99491.25;;;9.60;100.00
21545;BME280;10933;50.754;11.508;2023-04-20T08:50:48;99475.22;;;8.87;100.00
21545;BME280;10933;50.754;11.508;2023-04-20T08:53:15;99464.09;;;8.66;100.00
21545;BME280;10933;50.754;11.508;2023-04-20T08:55:41;99441.13;;;8.75;100.00
21545;BME280;10933;50.754;11.508;2023-04-20T08:58:07;99435.78;;;9.09;100.00
21545;BME280;10933;50.754;11.508;2023-04-20T09:00:33;99406.41;;;11.73;100.00
21545;BME280;10933;50.754;11.508;2023-04-20T09:02:59;99436.44;;;14.18;100.00
21545;BME280;10933;50.754;11.508;2023-04-20T09:05:29;99500.53;;;15.91;100.00
21545;BME280;10933;50.754;11.508;2023-04-20T09:07:57;99556.22;;;16.99;100.00
21545;BME280;10933;50.754;11.508;2023-04-20T09:10:24;99741.41;;;17.09;100.00
21545;BME280;10933;50.754;11.508;2023-04-20T09:12:51;99740.81;;;14.96;100.00
21545;BME280;10933;50.754;11.508;2023-04-20T09:15:28;99741.63;;;14.05;100.00
21545;BME280;10933;50.754;11.508;2023-04-20T09:17:54;99745.53;;;12.57;100.00
21545;BME280;10933;50.754;11.508;2023-04-20T09:20:32;99731.06;;;11.16;100.00
21545;BME280;10933;50.754;11.508;2023-04-20T09:23:10;99736.84;;;10.31;100.00
21545;BME280;10933;50.754;11.508;2023-04-20T09:25:37;99733.69;;;9.77;100.00
21545;BME280;10933;50.754;11.508;2023-04-20T09:28:03;99735.72;;;9.41;100.00
21545;BME280;10933;50.754;11.508;2023-04-20T09:30:43;99720.16;;;9.32;100.00
21545;BME280;10933;50.754;11.508;2023-04-20T09:33:10;99725.75;;;9.42;100.00
21545;BME280;10933;50.754;11.508;2023-04-20T09:35:41;99731.59;;;9.79;100.00
21545;BME280;10933;50.754;11.508;2023-04-20T09:38:08;99721.38;;;9.81;100.00
21545;BME280;10933;50.754;11.508;2023-04-20T09:40:35;99720.75;;;9.22;100.00
21545;BME280;10933;50.754;11.508;2023-04-20T09:43:19;99722.63;;;9.33;100.00
21545;BME280;10933;50.754;11.508;2023-04-20T09:45:48;99715.72;;;9.26;100.00
21545;BME280;10933;50.754;11.508;2023-04-20T09:48:15;99705.13;;;9.48;100.00
21545;BME280;10933;50.754;11.508;2023-04-20T09:50:45;99714.75;;;9.72;100.00
21545;BME280;10933;50.754;11.508;2023-04-20T09:53:14;99716.88;;;9.70;100.00
21545;BME280;10933;50.754;11.508;2023-04-20T09:55:48;99716.56;;;9.83;100.00
21545;BME280;10933;50.754;11.508;2023-04-20T09:58:17;99716.56;;;9.83;100.00
21545;BME280;10933;50.754;11.508;2023-04-20T10:00:45;99722.88;;;9.60;100.00
21545;BME280;10933;50.754;11.508;2023-04-20T10:03:14;99711.56;;;9.06;100.00
21545;BME280;10933;50.754;11.508;2023-04-20T10:05:40;99710.53;;;8.96;100.00
21545;BME280;10933;50.754;11.508;2023-04-20T10:08:07;99711.69;;;8.76;100.00
21545;BME280;10933;50.754;11.508;2023-04-20T10:10:48;99715.44;;;8.75;100.00
21545;BME280;10933;50.754;11.508;2023-04-20T10:13:15;99718.59;;;8.72;100.00
21545;BME280;10933;50.754;11.508;2023-04-20T10:15:44;99715.69;;;8.85;100.00
21545;BME280;10933;50.754;11.508;2023-04-20T10:18:21;99717.06;;;9.00;100.00
21545;BME280;10933;50.754;11.508;2023-04-20T10:20:51;99720.38;;;8.78;100.00
21545;BME280;10933;50.754;11.508;2023-04-20T10:23:17;99712.63;;;8.94;100.00
21545;BME280;10933;50.754;11.508;2023-04-20T10:26:04;99715.88;;;9.19;100.00
21545;BME280;10933;50.754;11.508;2023-04-20T10:28:38;99711.03;;;9.61;100.00
21545;BME280;10933;50.754;11.508;2023-04-20T10:31:07;99704.44;;;11.03;100.00
21545;BME280;10933;50.754;11.508;2023-04-20T10:33:54;99704.63;;;12.16;100.00
21545;BME280;10933;50.754;11.508;2023-04-20T10:36:28;99697.94;;;13.81;100.00
21545;BME280;10933;50.754;11.508;2023-04-20T10:38:54;99704.06;;;13.36;100.00
21545;BME280;10933;50.754;11.508;2023-04-20T10:41:21;99700.56;;;12.93;100.00
21545;BME280;10933;50.754;11.508;2023-04-20T10:43:47;99697.28;;;12.12;100.00
21545;BME280;10933;50.754;11.508;2023-04-20T10:46:21;99689.25;;;11.41;100.00
21545;BME280;10933;50.754;11.508;2023-04-20T10:48:53;99671.94;;;10.93;100.00
21545;BME280;10933;50.754;11.508;2023-04-20T10:51:20;99684.28;;;10.67;100.00
21545;BME280;10933;50.754;11.508;2023-04-20T10:54:00;99684.47;;;10.44;100.00
21545;BME280;10933;50.754;11.508;2023-04-20T10:56:27;99667.81;;;10.30;100.00
21545;BME280;10933;50.754;11.508;2023-04-20T10:58:53;99658.69;;;10.02;100.00
21545;BME280;10933;50.754;11.508;2023-04-20T11:01:19;99658.94;;;10.01;100.00
21545;BME280;10933;50.754;11.508;2023-04-20T11:03:49;99655.97;;;9.69;100.00
21545;BME280;10933;50.754;11.508;2023-04-20T11:06:18;99656.28;;;9.56;100.00
21545;BME280;10933;50.754;11.508;2023-04-20T11:08:45;99651.28;;;9.93;100.00
21545;BME280;10933;50.754;11.508;2023-04-20T11:11:21;99648.25;;;10.23;100.00
21545;BME280;10933;50.754;11.508;2023-04-20T11:14:08;99642.47;;;10.31;100.00
21545;BME280;10933;50.754;11.508;2023-04-20T11:16:35;99629.47;;;9.94;100.00
21545;BME280;10933;50.754;11.508;2023-04-20T11:19:02;99634.25;;;9.76;100.00
21545;BME280;10933;50.754;11.508;2023-04-20T11:21:40;99638.34;;;9.78;100.00
21545;BME280;10933;50.754;11.508;2023-04-20T11:24:17;99639.94;;;9.46;100.00
21545;BME280;10933;50.754;11.508;2023-04-20T11:26:45;99639.66;;;9.30;100.00
21545;BME280;10933;50.754;11.508;2023-04-20T11:29:26;99631.16;;;9.10;100.00
21545;BME280;10933;50.754;11.508;2023-04-20T11:31:54;99644.41;;;9.00;100.00
21545;BME280;10933;50.754;11.508;2023-04-20T11:34:21;99644.38;;;9.11;100.00
21545;BME280;10933;50.754;11.508;2023-04-20T11:36:48;99643.28;;;9.24;100.00
21545;BME280;10933;50.754;11.508;2023-04-20T11:39:25;99636.34;;;9.00;100.00
21545;BME280;10933;50.754;11.508;2023-04-20T11:41:52;99644.66;;;8.98;100.00
21545;BME280;10933;50.754;11.508;2023-04-20T11:44:22;99648.72;;;9.01;100.00
21545;BME280;10933;50.754;11.508;2023-04-20T11:46:49;99635.72;;;9.09;100.00
21545;BME280;10933;50.754;11.508;2023-04-20T11:49:21;99638.78;;;9.01;100.00
21545;BME280;10933;50.754;11.508;2023-04-20T11:51:47;99636.47;;;9.05;100.00
21545;BME280;10933;50.754;11.508;2023-04-20T11:54:13;99637.97;;;9.01;100.00
21545;BME280;10933;50.754;11.508;2023-04-20T11:56:40;99641.31;;;8.79;100.00
21545;BME280;10933;50.754;11.508;2023-04-20T11:59:07;99645.25;;;8.89;100.00
21545;BME280;10933;50.754;11.508;2023-04-20T12:01:34;99639.66;;;8.90;100.00
21545;BME280;10933;50.754;11.508;2023-04-20T12:04:01;99640.34;;;8.85;100.00
21545;BME280;10933;50.754;11.508;2023-04-20T12:06:28;99650.63;;;8.89;100.00
21545;BME280;10933;50.754;11.508;2023-04-20T12:08:54;99649.00;;;8.88;100.00
21545;BME280;10933;50.754;11.508;2023-04-20T12:11:21;99640.75;;;8.77;100.00
21545;BME280;10933;50.754;11.508;2023-04-20T12:13:48;99635.16;;;8.67;100.00
21545;BME280;10933;50.754;11.508;2023-04-20T12:16:14;99636.28;;;8.83;100.00
21545;BME280;10933;50.754;11.508;2023-04-20T12:18:40;99636.59;;;8.87;100.00
21545;BME280;10933;50.754;11.508;2023-04-20T12:21:06;99637.56;;;8.80;100.00
21545;BME280;10933;50.754;11.508;2023-04-20T12:23:33;99638.97;;;8.71;100.00
21545;BME280;10933;50.754;11.508;2023-04-20T12:26:02;99625.78;;;8.70;100.00
21545;BME280;10933;50.754;11.508;2023-04-20T12:28:29;99628.56;;;8.75;100.00
21545;BME280;10933;50.754;11.508;2023-04-20T12:30:56;99630.31;;;8.81;100.00
21545;BME280;10933;50.754;11.508;2023-04-20T12:33:23;99636.16;;;8.90;100.00
21545;BME280;10933;50.754;11.508;2023-04-20T12:35:49;99625.84;;;8.87;100.00
21545;BME280;10933;50.754;11.508;2023-04-20T12:38:16;99623.72;;;8.89;100.00
21545;BME280;10933;50.754;11.508;2023-04-20T12:40:42;99613.84;;;8.77;100.00
21545;BME280;10933;50.754;11.508;2023-04-20T12:43:08;99621.13;;;8.65;100.00
21545;BME280;10933;50.754;11.508;2023-04-20T12:45:34;99603.41;;;8.81;100.00
21545;BME280;10933;50.754;11.508;2023-04-20T12:48:00;99610.72;;;8.97;100.00